Severn — WDE5806 — position and weather

sailwx.info

Track history (hours):
 
Tides and Currents Weather Stations Pressure Air Temp Water Temp Dewpoint Dewpoint Depression Visibility Wind Speed Wind Dir Waves Ship Positions

Severn

Owner: Vane Line Bunkering, Inc., Philadelphia, PA. More information available from US FCC via Universal Licensing System and Coast Guard Vessel Documentation Center.

Last reported at 2017-Nov-20 00:30 UTC. Time now 2017-Nov-20 07:57 UTC.
Position N 40°40' W 074°00'.

Length 33 m; draft 5 m.

Type: Towing. MMSI: 367371840.

Date/timePositionNaut miles runAvg speedWind from/ knotsBaromVisibWave heightAir tempDewpointWater temp
2017-Nov-20 00:30N 40°40' W 074°00'0 0.0
2017-Nov-20 00:00N 40°40' W 074°00'0 0.0
2017-Nov-19 23:30N 40°40' W 074°00'0 0.1
2017-Nov-19 23:00N 40°40' W 074°00'2 4.3
2017-Nov-19 22:30N 40°39' W 074°03'2 3.8
2017-Nov-19 22:01N 40°39' W 074°05'0 0.2
2017-Nov-19 21:30N 40°39' W 074°05'0 0.0
2017-Nov-19 21:00N 40°39' W 074°05'0 0.0
2017-Nov-19 20:30N 40°39' W 074°05'2 3.6
2017-Nov-19 20:00N 40°39' W 074°03'2 3.2
2017-Nov-19 19:31N 40°40' W 074°01'0 0.0
2017-Nov-19 19:01N 40°40' W 074°01'1 2.8
2017-Nov-19 18:31N 40°39' W 074°02'4 6.9
2017-Nov-19 18:00N 40°39' W 074°07'0 0.0
2017-Nov-19 17:30N 40°39' W 074°07'1 2.0
2017-Nov-19 17:00N 40°39' W 074°06'2 3.6
2017-Nov-19 16:30N 40°40' W 074°04'1 1.1
2017-Nov-19 16:00N 40°40' W 074°04'1 1.6
2017-Nov-19 15:31N 40°40' W 074°03'2 3.2
2017-Nov-19 15:00N 40°40' W 074°01'0 0.9
2017-Nov-19 14:30N 40°40' W 074°00'0 0.0
2017-Nov-19 14:00N 40°40' W 074°00'0 0.0
2017-Nov-19 13:31N 40°40' W 074°00'2 3.4
2017-Nov-19 13:01N 40°39' W 074°02'1 2.6
2017-Nov-19 12:30N 40°39' W 074°04'0 0.0
2017-Nov-19 12:01N 40°39' W 074°04'0 0.0
2017-Nov-19 11:30N 40°39' W 074°04'0 0.1
2017-Nov-19 10:59N 40°39' W 074°04'0 0.0
2017-Nov-19 10:30N 40°39' W 074°04'0 0.0
2017-Nov-19 10:01N 40°39' W 074°04'0 0.5
2017-Nov-19 09:31N 40°39' W 074°04'1 2.3
2017-Nov-19 09:01N 40°39' W 074°05'1 2.7
2017-Nov-19 08:31N 40°40' W 074°04'0 0.0
2017-Nov-19 08:00N 40°40' W 074°04'0 0.0
2017-Nov-19 07:31N 40°40' W 074°04'0 0.0
2017-Nov-19 07:01N 40°40' W 074°04'0 0.0
2017-Nov-19 06:31N 40°40' W 074°04'0 0.0
2017-Nov-19 06:00N 40°40' W 074°04'0 0.0
2017-Nov-19 05:30N 40°40' W 074°04'0 0.0
2017-Nov-19 05:01N 40°40' W 074°04'0 0.0
2017-Nov-19 04:30N 40°40' W 074°04'0 0.0
2017-Nov-19 04:01N 40°40' W 074°04'0 0.0
2017-Nov-19 03:30N 40°40' W 074°04'0 0.0
2017-Nov-19 03:01N 40°40' W 074°04'3 5.0
2017-Nov-19 02:30N 40°40' W 074°01'1 1.3
2017-Nov-19 02:00N 40°40' W 074°00'0 0.0
2017-Nov-19 01:31N 40°40' W 074°00'0 0.0
2017-Nov-19 01:01N 40°40' W 074°00'0 0.0
2017-Nov-19 00:30N 40°40' W 074°00'0 0.0
2017-Nov-19 00:01N 40°40' W 074°00'0 0.0
2017-Nov-18 23:31N 40°40' W 074°00'0 0.0
2017-Nov-18 23:01N 40°40' W 074°00'0 0.0
2017-Nov-18 22:31N 40°40' W 074°00'0 0.0
2017-Nov-18 22:00N 40°40' W 074°00'0 0.0
2017-Nov-18 21:31N 40°40' W 074°00'1 1.7
2017-Nov-18 21:01N 40°40' W 074°01'3 6.6
2017-Nov-18 20:30N 40°39' W 074°05'2 3.7
2017-Nov-18 20:01N 40°38' W 074°04'0 0.8
2017-Nov-18 19:31N 40°37' W 074°04'0 0.0
2017-Nov-18 19:00N 40°37' W 074°04'0 0.0
2017-Nov-18 18:30N 40°37' W 074°04'0 0.0
2017-Nov-18 18:00N 40°37' W 074°04'0 0.0
2017-Nov-18 17:31N 40°37' W 074°04'0 0.0
2017-Nov-18 17:00N 40°37' W 074°04'0 0.0
2017-Nov-18 16:30N 40°37' W 074°04'0 0.0
2017-Nov-18 16:01N 40°37' W 074°04'0 0.5
2017-Nov-18 15:30N 40°38' W 074°04'2 4.7
2017-Nov-18 15:00N 40°40' W 074°04'0 0.0
2017-Nov-18 14:30N 40°40' W 074°04'0 0.0
2017-Nov-18 14:01N 40°40' W 074°04'0 0.0
2017-Nov-18 13:31N 40°40' W 074°04'0 0.0
2017-Nov-18 13:01N 40°40' W 074°04'0 0.0
2017-Nov-18 12:31N 40°40' W 074°04'2 3.1
2017-Nov-18 12:01N 40°39' W 074°06'4 8.4
2017-Nov-18 11:30N 40°39' W 074°11'3 3.7
2017-Nov-18 10:35N 40°35' W 074°12'1 7.6
2017-Nov-18 10:30N 40°36' W 074°12'3 6.6
2017-Nov-18 09:59N 40°39' W 074°09'3 6.7
2017-Nov-18 09:31N 40°39' W 074°05'1 2.5
2017-Nov-18 09:01N 40°39' W 074°07'4 7.5
2017-Nov-18 08:31N 40°38' W 074°12'1 1.3
2017-Nov-18 08:00N 40°38' W 074°12'0 0.0
2017-Nov-18 07:30N 40°38' W 074°12'0 0.0
2017-Nov-18 07:00N 40°38' W 074°12'0 0.0
2017-Nov-18 06:30N 40°38' W 074°12'0 0.0
2017-Nov-18 06:00N 40°38' W 074°12'0 0.0
2017-Nov-18 05:30N 40°38' W 074°12'0 0.0
2017-Nov-18 05:01N 40°38' W 074°12'0 0.0
2017-Nov-18 04:31N 40°38' W 074°12'0 0.0
2017-Nov-18 04:00N 40°38' W 074°12'0 0.1
2017-Nov-18 03:30N 40°38' W 074°12'1 1.1
2017-Nov-18 03:01N 40°38' W 074°12'3 5.8
2017-Nov-18 02:30N 40°40' W 074°08'1 1.0
2017-Nov-18 02:00N 40°40' W 074°08'2 3.5
2017-Nov-18 01:30N 40°39' W 074°07'1 2.8
2017-Nov-18 01:00N 40°39' W 074°05'0 0.0
2017-Nov-18 00:30N 40°39' W 074°05'0 0.0
2017-Nov-18 00:01N 40°39' W 074°05'0 0.0
2017-Nov-17 23:31N 40°39' W 074°05'0 0.0
2017-Nov-17 23:00N 40°39' W 074°05'0 0.0
2017-Nov-17 22:30N 40°39' W 074°05'0 0.0
2017-Nov-17 22:01N 40°39' W 074°05'3 6.0
2017-Nov-17 21:30N 40°39' W 074°01'1 2.5
2017-Nov-17 21:01N 40°40' W 074°00'0 0.0
2017-Nov-17 20:31N 40°40' W 074°00'0 0.0
2017-Nov-17 20:00N 40°40' W 074°00'0 0.1
2017-Nov-17 19:30N 40°40' W 074°00'0 0.1
2017-Nov-17 19:01N 40°40' W 074°00'3 5.9
2017-Nov-17 18:30N 40°43' W 074°01'611.7
2017-Nov-17 18:01N 40°48' W 073°59'5 9.7
2017-Nov-17 17:30N 40°53' W 073°56'0 0.2
2017-Nov-17 17:01N 40°53' W 073°56'0 0.0
2017-Nov-17 16:30N 40°53' W 073°56'0 0.2
2017-Nov-17 16:00N 40°53' W 073°56'0 0.2
2017-Nov-17 15:30N 40°53' W 073°56'0 0.1
2017-Nov-17 14:59N 40°53' W 073°56'0 0.1
2017-Nov-17 14:30N 40°53' W 073°56'0 0.1
2017-Nov-17 13:54N 40°53' W 073°56'0 0.0
2017-Nov-17 13:29N 40°53' W 073°56'0 0.0
2017-Nov-17 13:00N 40°53' W 073°56'0 0.0
2017-Nov-17 12:31N 40°53' W 073°56'0 0.1
2017-Nov-17 12:01N 40°53' W 073°56'0 0.2
2017-Nov-17 11:30N 40°53' W 073°56'0 0.2
2017-Nov-17 11:00N 40°53' W 073°56'0 0.0
2017-Nov-17 10:31N 40°53' W 073°56'0 0.0
2017-Nov-17 10:00N 40°53' W 073°56'0 0.1
2017-Nov-17 09:30N 40°53' W 073°56'0 0.0
2017-Nov-17 09:00N 40°53' W 073°56'0 0.1
2017-Nov-17 08:30N 40°53' W 073°56'1 2.8
2017-Nov-17 08:00N 40°51' W 073°57'3 6.8
2017-Nov-17 07:30N 40°48' W 073°59'3 6.3
2017-Nov-17 07:01N 40°46' W 074°01'3 6.4
2017-Nov-17 06:31N 40°42' W 074°02'3 6.5
2017-Nov-17 06:01N 40°39' W 074°03'4 7.1
2017-Nov-17 05:30N 40°36' W 074°02'3 6.2
2017-Nov-17 05:00N 40°33' W 074°01'2 3.6
2017-Nov-17 04:31N 40°31' W 074°00'2 4.6
2017-Nov-17 04:00N 40°30' W 073°57'2 3.9
2017-Nov-17 03:30N 40°29' W 073°55'2 4.9
2017-Nov-17 02:59N 40°27' W 073°54'1 1.1
2017-Nov-17 02:29N 40°27' W 073°53'37 9.2
2017-Nov-16 22:26N 39°50' W 073°58'5 9.3
2017-Nov-16 21:55N 39°45' W 073°59'5 9.7
2017-Nov-16 21:23N 39°40' W 074°01'4 9.8
2017-Nov-16 20:59N 39°36' W 074°03'63 7.7
2017-Nov-16 12:52N 38°58' W 075°08'4 9.7
2017-Nov-16 12:30N 39°02' W 075°09'5 9.2
2017-Nov-16 12:00N 39°06' W 075°12'4 8.6
2017-Nov-16 11:30N 39°09' W 075°15'4 8.4
2017-Nov-16 11:00N 39°13' W 075°18'4 8.6
2017-Nov-16 10:30N 39°16' W 075°21'5 9.3
2017-Nov-16 10:00N 39°20' W 075°25'510.0
2017-Nov-16 09:30N 39°24' W 075°29'5 9.8
2017-Nov-16 09:00N 39°27' W 075°34'611.3
2017-Nov-16 08:30N 39°33' W 075°33'4 8.6
2017-Nov-16 08:00N 39°33' W 075°38'4 9.0
2017-Nov-16 07:31N 39°32' W 075°44'4 8.2
2017-Nov-16 07:00N 39°32' W 075°49'4 8.4
2017-Nov-16 06:30N 39°30' W 075°54'4 8.7
2017-Nov-16 06:00N 39°28' W 075°59'4 8.6
2017-Nov-16 05:30N 39°24' W 076°03'4 8.4
2017-Nov-16 05:00N 39°22' W 076°07'4 8.2
2017-Nov-16 04:30N 39°20' W 076°12'4 8.0
2017-Nov-16 03:58N 39°16' W 076°14'4 8.4
2017-Nov-16 03:30N 39°12' W 076°15'4 8.7
2017-Nov-16 03:00N 39°09' W 076°19'11 8.0
2017-Nov-16 01:40N 38°59' W 076°23'1 9.1
2017-Nov-16 01:30N 38°58' W 076°24'5 8.9
2017-Nov-16 00:55N 38°52' W 076°25'4 9.0
2017-Nov-16 00:26N 38°48' W 076°27'4 9.1
2017-Nov-16 00:00N 38°44' W 076°28'5 9.2
2017-Nov-15 23:30N 38°40' W 076°28'101 9.1
2017-Nov-15 12:25N 37°01' W 076°03'410.5
2017-Nov-15 12:00N 36°58' W 075°60'  
Track history (hours):
 
Tides and Currents Weather Stations Pressure Air Temp Water Temp Dewpoint Dewpoint Depression Visibility Wind Speed Wind Dir Waves Ship Positions

Severn

Owner: Vane Line Bunkering, Inc., Philadelphia, PA. More information available from US FCC via Universal Licensing System and Coast Guard Vessel Documentation Center.

Last reported at 2017-Nov-20 00:30 UTC. Time now 2017-Nov-20 07:57 UTC.
Position N 40°40' W 074°00'.

Length 33 m; draft 5 m.

Type: Towing. MMSI: 367371840.

Date/timePositionNaut miles runAvg speedWind from/ knotsBaromVisibWave heightAir tempDewpointWater temp
2017-Nov-20 00:30N 40°40' W 074°00'0 0.0
2017-Nov-20 00:00N 40°40' W 074°00'0 0.0
2017-Nov-19 23:30N 40°40' W 074°00'0 0.1
2017-Nov-19 23:00N 40°40' W 074°00'2 4.3
2017-Nov-19 22:30N 40°39' W 074°03'2 3.8
2017-Nov-19 22:01N 40°39' W 074°05'0 0.2
2017-Nov-19 21:30N 40°39' W 074°05'0 0.0
2017-Nov-19 21:00N 40°39' W 074°05'0 0.0
2017-Nov-19 20:30N 40°39' W 074°05'2 3.6
2017-Nov-19 20:00N 40°39' W 074°03'2 3.2
2017-Nov-19 19:31N 40°40' W 074°01'0 0.0
2017-Nov-19 19:01N 40°40' W 074°01'1 2.8
2017-Nov-19 18:31N 40°39' W 074°02'4 6.9
2017-Nov-19 18:00N 40°39' W 074°07'0 0.0
2017-Nov-19 17:30N 40°39' W 074°07'1 2.0
2017-Nov-19 17:00N 40°39' W 074°06'2 3.6
2017-Nov-19 16:30N 40°40' W 074°04'1 1.1
2017-Nov-19 16:00N 40°40' W 074°04'1 1.6
2017-Nov-19 15:31N 40°40' W 074°03'2 3.2
2017-Nov-19 15:00N 40°40' W 074°01'0 0.9
2017-Nov-19 14:30N 40°40' W 074°00'0 0.0
2017-Nov-19 14:00N 40°40' W 074°00'0 0.0
2017-Nov-19 13:31N 40°40' W 074°00'2 3.4
2017-Nov-19 13:01N 40°39' W 074°02'1 2.6
2017-Nov-19 12:30N 40°39' W 074°04'0 0.0
2017-Nov-19 12:01N 40°39' W 074°04'0 0.0
2017-Nov-19 11:30N 40°39' W 074°04'0 0.1
2017-Nov-19 10:59N 40°39' W 074°04'0 0.0
2017-Nov-19 10:30N 40°39' W 074°04'0 0.0
2017-Nov-19 10:01N 40°39' W 074°04'0 0.5
2017-Nov-19 09:31N 40°39' W 074°04'1 2.3
2017-Nov-19 09:01N 40°39' W 074°05'1 2.7
2017-Nov-19 08:31N 40°40' W 074°04'0 0.0
2017-Nov-19 08:00N 40°40' W 074°04'0 0.0
2017-Nov-19 07:31N 40°40' W 074°04'0 0.0
2017-Nov-19 07:01N 40°40' W 074°04'0 0.0
2017-Nov-19 06:31N 40°40' W 074°04'0 0.0
2017-Nov-19 06:00N 40°40' W 074°04'0 0.0
2017-Nov-19 05:30N 40°40' W 074°04'0 0.0
2017-Nov-19 05:01N 40°40' W 074°04'0 0.0
2017-Nov-19 04:30N 40°40' W 074°04'0 0.0
2017-Nov-19 04:01N 40°40' W 074°04'0 0.0
2017-Nov-19 03:30N 40°40' W 074°04'0 0.0
2017-Nov-19 03:01N 40°40' W 074°04'3 5.0
2017-Nov-19 02:30N 40°40' W 074°01'1 1.3
2017-Nov-19 02:00N 40°40' W 074°00'0 0.0
2017-Nov-19 01:31N 40°40' W 074°00'0 0.0
2017-Nov-19 01:01N 40°40' W 074°00'0 0.0
2017-Nov-19 00:30N 40°40' W 074°00'0 0.0
2017-Nov-19 00:01N 40°40' W 074°00'0 0.0
2017-Nov-18 23:31N 40°40' W 074°00'0 0.0
2017-Nov-18 23:01N 40°40' W 074°00'0 0.0
2017-Nov-18 22:31N 40°40' W 074°00'0 0.0
2017-Nov-18 22:00N 40°40' W 074°00'0 0.0
2017-Nov-18 21:31N 40°40' W 074°00'1 1.7
2017-Nov-18 21:01N 40°40' W 074°01'3 6.6
2017-Nov-18 20:30N 40°39' W 074°05'2 3.7
2017-Nov-18 20:01N 40°38' W 074°04'0 0.8
2017-Nov-18 19:31N 40°37' W 074°04'0 0.0
2017-Nov-18 19:00N 40°37' W 074°04'0 0.0
2017-Nov-18 18:30N 40°37' W 074°04'0 0.0
2017-Nov-18 18:00N 40°37' W 074°04'0 0.0
2017-Nov-18 17:31N 40°37' W 074°04'0 0.0
2017-Nov-18 17:00N 40°37' W 074°04'0 0.0
2017-Nov-18 16:30N 40°37' W 074°04'0 0.0
2017-Nov-18 16:01N 40°37' W 074°04'0 0.5
2017-Nov-18 15:30N 40°38' W 074°04'2 4.7
2017-Nov-18 15:00N 40°40' W 074°04'0 0.0
2017-Nov-18 14:30N 40°40' W 074°04'0 0.0
2017-Nov-18 14:01N 40°40' W 074°04'0 0.0
2017-Nov-18 13:31N 40°40' W 074°04'0 0.0
2017-Nov-18 13:01N 40°40' W 074°04'0 0.0
2017-Nov-18 12:31N 40°40' W 074°04'2 3.1
2017-Nov-18 12:01N 40°39' W 074°06'4 8.4
2017-Nov-18 11:30N 40°39' W 074°11'3 3.7
2017-Nov-18 10:35N 40°35' W 074°12'1 7.6
2017-Nov-18 10:30N 40°36' W 074°12'3 6.6
2017-Nov-18 09:59N 40°39' W 074°09'3 6.7
2017-Nov-18 09:31N 40°39' W 074°05'1 2.5
2017-Nov-18 09:01N 40°39' W 074°07'4 7.5
2017-Nov-18 08:31N 40°38' W 074°12'1 1.3
2017-Nov-18 08:00N 40°38' W 074°12'0 0.0
2017-Nov-18 07:30N 40°38' W 074°12'0 0.0
2017-Nov-18 07:00N 40°38' W 074°12'0 0.0
2017-Nov-18 06:30N 40°38' W 074°12'0 0.0
2017-Nov-18 06:00N 40°38' W 074°12'0 0.0
2017-Nov-18 05:30N 40°38' W 074°12'0 0.0
2017-Nov-18 05:01N 40°38' W 074°12'0 0.0
2017-Nov-18 04:31N 40°38' W 074°12'0 0.0
2017-Nov-18 04:00N 40°38' W 074°12'0 0.1
2017-Nov-18 03:30N 40°38' W 074°12'1 1.1
2017-Nov-18 03:01N 40°38' W 074°12'3 5.8
2017-Nov-18 02:30N 40°40' W 074°08'1 1.0
2017-Nov-18 02:00N 40°40' W 074°08'2 3.5
2017-Nov-18 01:30N 40°39' W 074°07'1 2.8
2017-Nov-18 01:00N 40°39' W 074°05'0 0.0
2017-Nov-18 00:30N 40°39' W 074°05'0 0.0
2017-Nov-18 00:01N 40°39' W 074°05'0 0.0
2017-Nov-17 23:31N 40°39' W 074°05'0 0.0
2017-Nov-17 23:00N 40°39' W 074°05'0 0.0
2017-Nov-17 22:30N 40°39' W 074°05'0 0.0
2017-Nov-17 22:01N 40°39' W 074°05'3 6.0
2017-Nov-17 21:30N 40°39' W 074°01'1 2.5
2017-Nov-17 21:01N 40°40' W 074°00'0 0.0
2017-Nov-17 20:31N 40°40' W 074°00'0 0.0
2017-Nov-17 20:00N 40°40' W 074°00'0 0.1
2017-Nov-17 19:30N 40°40' W 074°00'0 0.1
2017-Nov-17 19:01N 40°40' W 074°00'3 5.9
2017-Nov-17 18:30N 40°43' W 074°01'611.7
2017-Nov-17 18:01N 40°48' W 073°59'5 9.7
2017-Nov-17 17:30N 40°53' W 073°56'0 0.2
2017-Nov-17 17:01N 40°53' W 073°56'0 0.0
2017-Nov-17 16:30N 40°53' W 073°56'0 0.2
2017-Nov-17 16:00N 40°53' W 073°56'0 0.2
2017-Nov-17 15:30N 40°53' W 073°56'0 0.1
2017-Nov-17 14:59N 40°53' W 073°56'0 0.1
2017-Nov-17 14:30N 40°53' W 073°56'0 0.1
2017-Nov-17 13:54N 40°53' W 073°56'0 0.0
2017-Nov-17 13:29N 40°53' W 073°56'0 0.0
2017-Nov-17 13:00N 40°53' W 073°56'0 0.0
2017-Nov-17 12:31N 40°53' W 073°56'0 0.1
2017-Nov-17 12:01N 40°53' W 073°56'0 0.2
2017-Nov-17 11:30N 40°53' W 073°56'0 0.2
2017-Nov-17 11:00N 40°53' W 073°56'0 0.0
2017-Nov-17 10:31N 40°53' W 073°56'0 0.0
2017-Nov-17 10:00N 40°53' W 073°56'0 0.1
2017-Nov-17 09:30N 40°53' W 073°56'0 0.0
2017-Nov-17 09:00N 40°53' W 073°56'0 0.1
2017-Nov-17 08:30N 40°53' W 073°56'1 2.8
2017-Nov-17 08:00N 40°51' W 073°57'3 6.8
2017-Nov-17 07:30N 40°48' W 073°59'3 6.3
2017-Nov-17 07:01N 40°46' W 074°01'3 6.4
2017-Nov-17 06:31N 40°42' W 074°02'3 6.5
2017-Nov-17 06:01N 40°39' W 074°03'4 7.1
2017-Nov-17 05:30N 40°36' W 074°02'3 6.2
2017-Nov-17 05:00N 40°33' W 074°01'2 3.6
2017-Nov-17 04:31N 40°31' W 074°00'2 4.6
2017-Nov-17 04:00N 40°30' W 073°57'2 3.9
2017-Nov-17 03:30N 40°29' W 073°55'2 4.9
2017-Nov-17 02:59N 40°27' W 073°54'1 1.1
2017-Nov-17 02:29N 40°27' W 073°53'37 9.2
2017-Nov-16 22:26N 39°50' W 073°58'5 9.3
2017-Nov-16 21:55N 39°45' W 073°59'5 9.7
2017-Nov-16 21:23N 39°40' W 074°01'4 9.8
2017-Nov-16 20:59N 39°36' W 074°03'63 7.7
2017-Nov-16 12:52N 38°58' W 075°08'4 9.7
2017-Nov-16 12:30N 39°02' W 075°09'5 9.2
2017-Nov-16 12:00N 39°06' W 075°12'4 8.6
2017-Nov-16 11:30N 39°09' W 075°15'4 8.4
2017-Nov-16 11:00N 39°13' W 075°18'4 8.6
2017-Nov-16 10:30N 39°16' W 075°21'5 9.3
2017-Nov-16 10:00N 39°20' W 075°25'510.0
2017-Nov-16 09:30N 39°24' W 075°29'5 9.8
2017-Nov-16 09:00N 39°27' W 075°34'611.3
2017-Nov-16 08:30N 39°33' W 075°33'4 8.6
2017-Nov-16 08:00N 39°33' W 075°38'4 9.0
2017-Nov-16 07:31N 39°32' W 075°44'4 8.2
2017-Nov-16 07:00N 39°32' W 075°49'4 8.4
2017-Nov-16 06:30N 39°30' W 075°54'4 8.7
2017-Nov-16 06:00N 39°28' W 075°59'4 8.6
2017-Nov-16 05:30N 39°24' W 076°03'4 8.4
2017-Nov-16 05:00N 39°22' W 076°07'4 8.2
2017-Nov-16 04:30N 39°20' W 076°12'4 8.0
2017-Nov-16 03:58N 39°16' W 076°14'4 8.4
2017-Nov-16 03:30N 39°12' W 076°15'4 8.7
2017-Nov-16 03:00N 39°09' W 076°19'11 8.0
2017-Nov-16 01:40N 38°59' W 076°23'1 9.1
2017-Nov-16 01:30N 38°58' W 076°24'5 8.9
2017-Nov-16 00:55N 38°52' W 076°25'4 9.0
2017-Nov-16 00:26N 38°48' W 076°27'4 9.1
2017-Nov-16 00:00N 38°44' W 076°28'5 9.2
2017-Nov-15 23:30N 38°40' W 076°28'101 9.1
2017-Nov-15 12:25N 37°01' W 076°03'410.5
2017-Nov-15 12:00N 36°58' W 075°60'  

Dump ship's entire track history